sensor_id;sensor_type;location;lat;lon;timestamp;P1;durP1;ratioP1;P2;durP2;ratioP2
52542;SDS011;38449;52.696;6.186;2023-07-31T00:02:03;4.30;;;2.90;;
52542;SDS011;38449;52.696;6.186;2023-07-31T00:04:30;4.97;;;3.08;;
52542;SDS011;38449;52.696;6.186;2023-07-31T00:06:56;3.88;;;2.85;;
52542;SDS011;38449;52.696;6.186;2023-07-31T00:09:22;3.80;;;2.97;;
52542;SDS011;38449;52.696;6.186;2023-07-31T00:11:50;4.38;;;2.92;;
52542;SDS011;38449;52.696;6.186;2023-07-31T00:14:16;3.22;;;2.65;;
52542;SDS011;38449;52.696;6.186;2023-07-31T00:16:42;3.70;;;2.47;;
52542;SDS011;38449;52.696;6.186;2023-07-31T00:19:09;3.13;;;2.28;;
52542;SDS011;38449;52.696;6.186;2023-07-31T00:21:35;4.00;;;3.10;;
52542;SDS011;38449;52.696;6.186;2023-07-31T00:24:02;4.30;;;2.22;;
52542;SDS011;38449;52.696;6.186;2023-07-31T00:26:30;3.75;;;2.65;;
52542;SDS011;38449;52.696;6.186;2023-07-31T00:28:57;3.33;;;2.20;;
52542;SDS011;38449;52.696;6.186;2023-07-31T00:31:23;3.72;;;2.25;;
52542;SDS011;38449;52.696;6.186;2023-07-31T00:33:49;3.03;;;2.10;;
52542;SDS011;38449;52.696;6.186;2023-07-31T00:36:16;3.65;;;2.10;;
52542;SDS011;38449;52.696;6.186;2023-07-31T00:38:43;2.60;;;1.80;;
52542;SDS011;38449;52.696;6.186;2023-07-31T00:41:10;3.00;;;1.80;;
52542;SDS011;38449;52.696;6.186;2023-07-31T00:43:36;2.78;;;1.80;;
52542;SDS011;38449;52.696;6.186;2023-07-31T00:46:03;2.25;;;1.75;;
52542;SDS011;38449;52.696;6.186;2023-07-31T00:48:30;2.72;;;1.80;;
52542;SDS011;38449;52.696;6.186;2023-07-31T00:50:58;2.17;;;1.55;;
52542;SDS011;38449;52.696;6.186;2023-07-31T00:53:24;2.10;;;1.52;;
52542;SDS011;38449;52.696;6.186;2023-07-31T00:55:52;2.55;;;1.65;;
52542;SDS011;38449;52.696;6.186;2023-07-31T00:58:19;1.98;;;1.27;;
52542;SDS011;38449;52.696;6.186;2023-07-31T01:00:45;2.40;;;1.40;;
52542;SDS011;38449;52.696;6.186;2023-07-31T01:03:11;2.10;;;1.38;;
52542;SDS011;38449;52.696;6.186;2023-07-31T01:08:33;2.55;;;1.50;;
52542;SDS011;38449;52.696;6.186;2023-07-31T01:11:14;2.10;;;1.30;;
52542;SDS011;38449;52.696;6.186;2023-07-31T01:13:44;4.10;;;1.48;;
52542;SDS011;38449;52.696;6.186;2023-07-31T01:16:11;2.28;;;1.60;;
52542;SDS011;38449;52.696;6.186;2023-07-31T01:18:38;2.58;;;1.48;;
52542;SDS011;38449;52.696;6.186;2023-07-31T01:21:18;2.03;;;1.45;;
52542;SDS011;38449;52.696;6.186;2023-07-31T01:26:43;5.63;;;1.80;;
52542;SDS011;38449;52.696;6.186;2023-07-31T01:31:45;4.28;;;1.90;;
52542;SDS011;38449;52.696;6.186;2023-07-31T01:34:15;2.55;;;1.58;;
52542;SDS011;38449;52.696;6.186;2023-07-31T01:36:43;2.75;;;1.63;;
52542;SDS011;38449;52.696;6.186;2023-07-31T01:39:09;2.83;;;1.63;;
52542;SDS011;38449;52.696;6.186;2023-07-31T01:41:36;2.47;;;1.50;;
52542;SDS011;38449;52.696;6.186;2023-07-31T01:44:02;2.17;;;1.55;;
52542;SDS011;38449;52.696;6.186;2023-07-31T01:46:28;2.13;;;1.50;;
52542;SDS011;38449;52.696;6.186;2023-07-31T01:48:54;2.35;;;1.52;;
52542;SDS011;38449;52.696;6.186;2023-07-31T01:51:21;3.45;;;1.60;;
52542;SDS011;38449;52.696;6.186;2023-07-31T01:53:47;2.90;;;2.00;;
52542;SDS011;38449;52.696;6.186;2023-07-31T01:56:13;2.78;;;1.63;;
52542;SDS011;38449;52.696;6.186;2023-07-31T01:58:40;2.72;;;1.85;;
52542;SDS011;38449;52.696;6.186;2023-07-31T02:01:06;3.28;;;1.92;;
52542;SDS011;38449;52.696;6.186;2023-07-31T02:03:33;3.42;;;2.00;;
52542;SDS011;38449;52.696;6.186;2023-07-31T02:06:00;2.17;;;1.65;;
52542;SDS011;38449;52.696;6.186;2023-07-31T02:08:26;4.28;;;1.63;;
52542;SDS011;38449;52.696;6.186;2023-07-31T02:10:53;2.58;;;1.60;;
52542;SDS011;38449;52.696;6.186;2023-07-31T02:13:19;3.85;;;1.60;;
52542;SDS011;38449;52.696;6.186;2023-07-31T02:15:45;2.50;;;1.60;;
52542;SDS011;38449;52.696;6.186;2023-07-31T02:18:12;2.65;;;1.63;;
52542;SDS011;38449;52.696;6.186;2023-07-31T02:20:38;2.67;;;1.50;;
52542;SDS011;38449;52.696;6.186;2023-07-31T02:23:06;2.88;;;1.58;;
52542;SDS011;38449;52.696;6.186;2023-07-31T02:25:32;2.30;;;1.40;;
52542;SDS011;38449;52.696;6.186;2023-07-31T02:27:58;2.67;;;1.50;;
52542;SDS011;38449;52.696;6.186;2023-07-31T02:30:25;3.35;;;1.50;;
52542;SDS011;38449;52.696;6.186;2023-07-31T02:32:51;2.90;;;1.38;;
52542;SDS011;38449;52.696;6.186;2023-07-31T02:35:17;2.30;;;1.30;;
52542;SDS011;38449;52.696;6.186;2023-07-31T02:37:44;2.40;;;1.80;;
52542;SDS011;38449;52.696;6.186;2023-07-31T02:40:10;4.07;;;1.63;;
52542;SDS011;38449;52.696;6.186;2023-07-31T02:42:37;3.30;;;1.73;;
52542;SDS011;38449;52.696;6.186;2023-07-31T02:45:03;2.58;;;1.63;;
52542;SDS011;38449;52.696;6.186;2023-07-31T02:47:30;2.70;;;1.83;;
52542;SDS011;38449;52.696;6.186;2023-07-31T02:49:56;3.63;;;1.88;;
52542;SDS011;38449;52.696;6.186;2023-07-31T02:52:22;3.03;;;1.70;;
52542;SDS011;38449;52.696;6.186;2023-07-31T02:54:48;3.63;;;1.98;;
52542;SDS011;38449;52.696;6.186;2023-07-31T02:57:15;3.42;;;2.33;;
52542;SDS011;38449;52.696;6.186;2023-07-31T02:59:42;4.40;;;2.50;;
52542;SDS011;38449;52.696;6.186;2023-07-31T03:02:08;3.58;;;2.08;;
52542;SDS011;38449;52.696;6.186;2023-07-31T03:04:35;4.75;;;2.50;;
52542;SDS011;38449;52.696;6.186;2023-07-31T03:07:01;3.70;;;2.33;;
52542;SDS011;38449;52.696;6.186;2023-07-31T03:09:28;3.72;;;2.50;;
52542;SDS011;38449;52.696;6.186;2023-07-31T03:11:54;6.25;;;2.50;;
52542;SDS011;38449;52.696;6.186;2023-07-31T03:14:20;5.38;;;3.10;;
52542;SDS011;38449;52.696;6.186;2023-07-31T03:16:47;6.18;;;2.88;;
52542;SDS011;38449;52.696;6.186;2023-07-31T03:19:14;4.80;;;2.78;;
52542;SDS011;38449;52.696;6.186;2023-07-31T03:21:40;4.53;;;2.85;;
52542;SDS011;38449;52.696;6.186;2023-07-31T03:24:06;4.47;;;2.90;;
52542;SDS011;38449;52.696;6.186;2023-07-31T03:26:33;5.55;;;3.25;;
52542;SDS011;38449;52.696;6.186;2023-07-31T03:28:59;5.90;;;3.05;;
52542;SDS011;38449;52.696;6.186;2023-07-31T03:31:25;5.47;;;3.33;;
52542;SDS011;38449;52.696;6.186;2023-07-31T03:33:52;5.97;;;3.17;;
52542;SDS011;38449;52.696;6.186;2023-07-31T03:36:18;5.78;;;3.05;;
52542;SDS011;38449;52.696;6.186;2023-07-31T03:38:45;8.02;;;2.90;;
52542;SDS011;38449;52.696;6.186;2023-07-31T03:41:12;6.65;;;3.05;;
52542;SDS011;38449;52.696;6.186;2023-07-31T03:43:38;8.20;;;3.63;;
52542;SDS011;38449;52.696;6.186;2023-07-31T03:46:05;6.03;;;3.22;;
52542;SDS011;38449;52.696;6.186;2023-07-31T03:48:31;8.32;;;3.60;;
52542;SDS011;38449;52.696;6.186;2023-07-31T03:50:57;7.78;;;3.78;;
52542;SDS011;38449;52.696;6.186;2023-07-31T03:53:23;6.43;;;2.95;;
52542;SDS011;38449;52.696;6.186;2023-07-31T03:55:50;6.38;;;3.03;;
52542;SDS011;38449;52.696;6.186;2023-07-31T03:58:17;9.48;;;3.67;;
52542;SDS011;38449;52.696;6.186;2023-07-31T04:00:44;5.88;;;3.22;;
52542;SDS011;38449;52.696;6.186;2023-07-31T04:03:12;11.98;;;3.72;;
52542;SDS011;38449;52.696;6.186;2023-07-31T04:05:38;8.80;;;3.67;;
52542;SDS011;38449;52.696;6.186;2023-07-31T04:08:05;9.77;;;4.50;;
52542;SDS011;38449;52.696;6.186;2023-07-31T04:10:32;12.00;;;4.65;;
52542;SDS011;38449;52.696;6.186;2023-07-31T04:12:59;14.57;;;5.03;;
52542;SDS011;38449;52.696;6.186;2023-07-31T04:15:26;14.52;;;5.38;;
52542;SDS011;38449;52.696;6.186;2023-07-31T04:17:53;15.48;;;5.45;;
52542;SDS011;38449;52.696;6.186;2023-07-31T04:20:20;14.95;;;5.53;;
52542;SDS011;38449;52.696;6.186;2023-07-31T04:22:47;16.08;;;5.70;;
52542;SDS011;38449;52.696;6.186;2023-07-31T04:25:13;18.10;;;5.90;;
52542;SDS011;38449;52.696;6.186;2023-07-31T04:27:39;17.10;;;5.63;;
52542;SDS011;38449;52.696;6.186;2023-07-31T04:30:06;12.10;;;5.22;;
52542;SDS011;38449;52.696;6.186;2023-07-31T04:32:33;14.10;;;5.50;;
52542;SDS011;38449;52.696;6.186;2023-07-31T04:35:01;15.10;;;5.68;;
52542;SDS011;38449;52.696;6.186;2023-07-31T04:37:29;15.73;;;5.53;;
52542;SDS011;38449;52.696;6.186;2023-07-31T04:39:55;18.67;;;6.18;;
52542;SDS011;38449;52.696;6.186;2023-07-31T04:42:22;16.17;;;5.88;;
52542;SDS011;38449;52.696;6.186;2023-07-31T04:44:48;13.25;;;5.65;;
52542;SDS011;38449;52.696;6.186;2023-07-31T04:47:14;15.30;;;6.25;;
52542;SDS011;38449;52.696;6.186;2023-07-31T04:49:41;14.05;;;6.40;;
52542;SDS011;38449;52.696;6.186;2023-07-31T04:52:07;13.30;;;5.85;;
52542;SDS011;38449;52.696;6.186;2023-07-31T04:54:34;18.05;;;6.45;;
52542;SDS011;38449;52.696;6.186;2023-07-31T04:57:00;18.25;;;6.75;;
52542;SDS011;38449;52.696;6.186;2023-07-31T04:59:26;19.58;;;6.60;;
52542;SDS011;38449;52.696;6.186;2023-07-31T05:01:53;20.45;;;6.65;;
52542;SDS011;38449;52.696;6.186;2023-07-31T05:04:20;16.92;;;6.85;;
52542;SDS011;38449;52.696;6.186;2023-07-31T05:06:46;19.48;;;6.82;;
52542;SDS011;38449;52.696;6.186;2023-07-31T05:09:12;17.92;;;6.28;;
52542;SDS011;38449;52.696;6.186;2023-07-31T05:11:38;15.68;;;6.35;;
52542;SDS011;38449;52.696;6.186;2023-07-31T05:14:06;20.85;;;7.38;;
52542;SDS011;38449;52.696;6.186;2023-07-31T05:16:33;16.55;;;6.18;;
52542;SDS011;38449;52.696;6.186;2023-07-31T05:18:59;21.75;;;6.85;;
52542;SDS011;38449;52.696;6.186;2023-07-31T05:21:25;19.33;;;7.35;;
52542;SDS011;38449;52.696;6.186;2023-07-31T05:23:52;21.75;;;6.75;;
52542;SDS011;38449;52.696;6.186;2023-07-31T05:26:19;21.92;;;6.45;;
52542;SDS011;38449;52.696;6.186;2023-07-31T05:28:45;17.10;;;7.57;;
52542;SDS011;38449;52.696;6.186;2023-07-31T05:31:11;16.40;;;6.30;;
52542;SDS011;38449;52.696;6.186;2023-07-31T05:33:38;21.83;;;7.15;;
52542;SDS011;38449;52.696;6.186;2023-07-31T05:36:04;22.60;;;8.10;;
52542;SDS011;38449;52.696;6.186;2023-07-31T05:38:30;17.77;;;6.72;;
52542;SDS011;38449;52.696;6.186;2023-07-31T05:40:56;17.10;;;6.45;;
52542;SDS011;38449;52.696;6.186;2023-07-31T05:43:23;17.83;;;6.63;;
52542;SDS011;38449;52.696;6.186;2023-07-31T05:45:50;23.48;;;7.32;;
52542;SDS011;38449;52.696;6.186;2023-07-31T05:48:16;16.63;;;6.85;;
52542;SDS011;38449;52.696;6.186;2023-07-31T05:50:43;19.92;;;7.10;;
52542;SDS011;38449;52.696;6.186;2023-07-31T05:53:10;19.02;;;7.50;;
52542;SDS011;38449;52.696;6.186;2023-07-31T05:55:36;14.57;;;6.40;;
52542;SDS011;38449;52.696;6.186;2023-07-31T05:58:03;19.45;;;7.43;;
52542;SDS011;38449;52.696;6.186;2023-07-31T06:00:29;18.08;;;6.50;;
52542;SDS011;38449;52.696;6.186;2023-07-31T06:02:55;15.57;;;6.40;;
52542;SDS011;38449;52.696;6.186;2023-07-31T06:05:22;17.83;;;6.95;;
52542;SDS011;38449;52.696;6.186;2023-07-31T06:07:48;18.10;;;7.72;;
52542;SDS011;38449;52.696;6.186;2023-07-31T06:10:14;21.00;;;7.18;;
52542;SDS011;38449;52.696;6.186;2023-07-31T06:12:40;17.83;;;8.50;;
52542;SDS011;38449;52.696;6.186;2023-07-31T06:15:07;17.52;;;7.40;;
52542;SDS011;38449;52.696;6.186;2023-07-31T06:17:33;23.35;;;8.25;;
52542;SDS011;38449;52.696;6.186;2023-07-31T06:19:59;23.35;;;8.77;;
52542;SDS011;38449;52.696;6.186;2023-07-31T06:22:26;18.08;;;6.97;;
52542;SDS011;38449;52.696;6.186;2023-07-31T06:24:52;15.30;;;6.97;;
52542;SDS011;38449;52.696;6.186;2023-07-31T06:27:18;17.58;;;7.45;;
52542;SDS011;38449;52.696;6.186;2023-07-31T06:29:45;19.25;;;8.38;;
52542;SDS011;38449;52.696;6.186;2023-07-31T06:32:11;14.45;;;6.40;;
52542;SDS011;38449;52.696;6.186;2023-07-31T06:34:37;14.68;;;7.03;;
52542;SDS011;38449;52.696;6.186;2023-07-31T06:37:04;12.63;;;6.45;;
52542;SDS011;38449;52.696;6.186;2023-07-31T06:39:30;12.52;;;5.22;;
52542;SDS011;38449;52.696;6.186;2023-07-31T06:41:56;10.55;;;5.47;;
52542;SDS011;38449;52.696;6.186;2023-07-31T06:44:23;9.85;;;5.25;;
52542;SDS011;38449;52.696;6.186;2023-07-31T06:46:49;9.05;;;4.32;;
52542;SDS011;38449;52.696;6.186;2023-07-31T06:49:16;8.82;;;5.13;;
52542;SDS011;38449;52.696;6.186;2023-07-31T06:51:43;8.35;;;3.95;;
52542;SDS011;38449;52.696;6.186;2023-07-31T06:57:09;7.07;;;3.92;;
52542;SDS011;38449;52.696;6.186;2023-07-31T06:59:35;6.93;;;3.88;;
52542;SDS011;38449;52.696;6.186;2023-07-31T07:02:01;10.32;;;4.68;;
52542;SDS011;38449;52.696;6.186;2023-07-31T07:04:28;7.45;;;4.20;;
52542;SDS011;38449;52.696;6.186;2023-07-31T07:06:55;7.25;;;4.45;;
52542;SDS011;38449;52.696;6.186;2023-07-31T07:09:21;9.02;;;4.20;;
52542;SDS011;38449;52.696;6.186;2023-07-31T07:11:48;7.15;;;3.88;;
52542;SDS011;38449;52.696;6.186;2023-07-31T07:14:14;8.30;;;4.10;;
52542;SDS011;38449;52.696;6.186;2023-07-31T07:16:40;6.18;;;3.30;;
52542;SDS011;38449;52.696;6.186;2023-07-31T07:19:07;8.38;;;4.35;;
52542;SDS011;38449;52.696;6.186;2023-07-31T07:21:33;5.97;;;3.33;;
52542;SDS011;38449;52.696;6.186;2023-07-31T07:23:59;5.45;;;3.22;;
52542;SDS011;38449;52.696;6.186;2023-07-31T07:26:26;5.88;;;3.38;;
52542;SDS011;38449;52.696;6.186;2023-07-31T07:28:52;5.93;;;3.22;;
52542;SDS011;38449;52.696;6.186;2023-07-31T07:31:18;4.90;;;2.63;;
52542;SDS011;38449;52.696;6.186;2023-07-31T07:33:44;6.00;;;2.60;;
52542;SDS011;38449;52.696;6.186;2023-07-31T07:36:11;5.60;;;3.30;;
52542;SDS011;38449;52.696;6.186;2023-07-31T07:38:39;5.38;;;2.67;;
52542;SDS011;38449;52.696;6.186;2023-07-31T07:41:07;5.07;;;2.80;;
52542;SDS011;38449;52.696;6.186;2023-07-31T07:43:34;4.38;;;2.63;;
52542;SDS011;38449;52.696;6.186;2023-07-31T07:46:00;5.32;;;2.90;;
52542;SDS011;38449;52.696;6.186;2023-07-31T07:48:26;4.22;;;3.08;;
52542;SDS011;38449;52.696;6.186;2023-07-31T07:50:53;4.78;;;2.95;;
52542;SDS011;38449;52.696;6.186;2023-07-31T07:53:19;4.45;;;2.67;;
52542;SDS011;38449;52.696;6.186;2023-07-31T07:55:45;4.40;;;3.28;;
52542;SDS011;38449;52.696;6.186;2023-07-31T07:58:11;4.22;;;2.60;;
52542;SDS011;38449;52.696;6.186;2023-07-31T08:00:38;4.38;;;2.60;;
52542;SDS011;38449;52.696;6.186;2023-07-31T08:03:04;4.88;;;2.92;;
52542;SDS011;38449;52.696;6.186;2023-07-31T08:05:31;5.78;;;3.10;;
52542;SDS011;38449;52.696;6.186;2023-07-31T08:07:59;3.60;;;2.90;;
52542;SDS011;38449;52.696;6.186;2023-07-31T08:10:26;3.95;;;2.95;;
52542;SDS011;38449;52.696;6.186;2023-07-31T08:12:52;4.05;;;2.55;;
52542;SDS011;38449;52.696;6.186;2023-07-31T08:15:18;4.20;;;2.53;;
52542;SDS011;38449;52.696;6.186;2023-07-31T08:17:44;4.93;;;2.92;;
52542;SDS011;38449;52.696;6.186;2023-07-31T08:20:11;3.75;;;3.00;;
52542;SDS011;38449;52.696;6.186;2023-07-31T08:22:38;5.05;;;3.03;;
52542;SDS011;38449;52.696;6.186;2023-07-31T08:25:05;2.90;;;2.30;;
52542;SDS011;38449;52.696;6.186;2023-07-31T08:27:32;4.25;;;2.53;;
52542;SDS011;38449;52.696;6.186;2023-07-31T08:29:58;4.22;;;2.30;;
52542;SDS011;38449;52.696;6.186;2023-07-31T08:32:24;4.03;;;2.50;;
52542;SDS011;38449;52.696;6.186;2023-07-31T08:34:51;3.20;;;2.40;;
52542;SDS011;38449;52.696;6.186;2023-07-31T08:37:18;2.97;;;2.22;;
52542;SDS011;38449;52.696;6.186;2023-07-31T08:39:44;3.10;;;2.25;;
52542;SDS011;38449;52.696;6.186;2023-07-31T08:42:10;4.18;;;2.85;;
52542;SDS011;38449;52.696;6.186;2023-07-31T08:44:38;4.10;;;2.50;;
52542;SDS011;38449;52.696;6.186;2023-07-31T08:47:04;4.38;;;2.33;;
52542;SDS011;38449;52.696;6.186;2023-07-31T08:49:31;3.33;;;2.60;;
52542;SDS011;38449;52.696;6.186;2023-07-31T08:52:03;3.53;;;2.47;;
52542;SDS011;38449;52.696;6.186;2023-07-31T08:54:31;2.80;;;2.03;;
52542;SDS011;38449;52.696;6.186;2023-07-31T08:56:59;2.78;;;2.00;;
52542;SDS011;38449;52.696;6.186;2023-07-31T08:59:29;3.40;;;2.28;;
52542;SDS011;38449;52.696;6.186;2023-07-31T09:02:07;2.80;;;2.30;;
52542;SDS011;38449;52.696;6.186;2023-07-31T09:04:34;2.97;;;2.00;;
52542;SDS011;38449;52.696;6.186;2023-07-31T09:07:02;3.25;;;2.28;;
52542;SDS011;38449;52.696;6.186;2023-07-31T09:09:30;3.20;;;2.22;;
52542;SDS011;38449;52.696;6.186;2023-07-31T09:11:57;3.95;;;2.30;;
52542;SDS011;38449;52.696;6.186;2023-07-31T09:14:31;3.30;;;2.22;;
52542;SDS011;38449;52.696;6.186;2023-07-31T09:16:59;3.15;;;2.30;;
52542;SDS011;38449;52.696;6.186;2023-07-31T09:19:26;3.03;;;2.20;;
52542;SDS011;38449;52.696;6.186;2023-07-31T09:21:59;2.63;;;2.00;;
52542;SDS011;38449;52.696;6.186;2023-07-31T09:24:26;3.53;;;2.42;;
52542;SDS011;38449;52.696;6.186;2023-07-31T09:26:56;3.35;;;2.20;;
52542;SDS011;38449;52.696;6.186;2023-07-31T09:29:25;2.97;;;2.08;;
52542;SDS011;38449;52.696;6.186;2023-07-31T09:31:53;2.45;;;2.10;;
52542;SDS011;38449;52.696;6.186;2023-07-31T09:34:20;3.40;;;2.00;;
52542;SDS011;38449;52.696;6.186;2023-07-31T09:37:04;3.20;;;2.03;;
52542;SDS011;38449;52.696;6.186;2023-07-31T09:39:31;2.78;;;1.95;;
52542;SDS011;38449;52.696;6.186;2023-07-31T09:41:57;3.30;;;2.30;;
52542;SDS011;38449;52.696;6.186;2023-07-31T09:44:40;3.13;;;2.42;;
52542;SDS011;38449;52.696;6.186;2023-07-31T09:49:57;2.83;;;2.13;;
52542;SDS011;38449;52.696;6.186;2023-07-31T09:52:24;3.75;;;2.53;;
52542;SDS011;38449;52.696;6.186;2023-07-31T09:54:52;4.57;;;2.60;;
52542;SDS011;38449;52.696;6.186;2023-07-31T09:57:19;2.85;;;2.35;;
52542;SDS011;38449;52.696;6.186;2023-07-31T09:59:48;3.83;;;2.22;;
52542;SDS011;38449;52.696;6.186;2023-07-31T10:02:30;3.75;;;2.30;;
52542;SDS011;38449;52.696;6.186;2023-07-31T10:04:59;2.70;;;2.03;;
52542;SDS011;38449;52.696;6.186;2023-07-31T10:07:30;2.50;;;2.15;;
52542;SDS011;38449;52.696;6.186;2023-07-31T10:10:00;2.45;;;1.95;;
52542;SDS011;38449;52.696;6.186;2023-07-31T10:12:27;2.83;;;1.98;;
52542;SDS011;38449;52.696;6.186;2023-07-31T10:14:54;2.30;;;1.95;;
52542;SDS011;38449;52.696;6.186;2023-07-31T10:17:22;3.67;;;1.90;;
52542;SDS011;38449;52.696;6.186;2023-07-31T10:19:50;2.60;;;2.10;;
52542;SDS011;38449;52.696;6.186;2023-07-31T10:22:18;2.58;;;2.13;;
52542;SDS011;38449;52.696;6.186;2023-07-31T10:24:48;2.35;;;1.80;;
52542;SDS011;38449;52.696;6.186;2023-07-31T10:27:15;2.13;;;1.83;;
52542;SDS011;38449;52.696;6.186;2023-07-31T10:29:43;2.75;;;1.77;;
52542;SDS011;38449;52.696;6.186;2023-07-31T10:32:13;2.53;;;2.00;;
52542;SDS011;38449;52.696;6.186;2023-07-31T10:34:41;1.95;;;1.42;;
52542;SDS011;38449;52.696;6.186;2023-07-31T10:37:20;2.25;;;1.80;;
52542;SDS011;38449;52.696;6.186;2023-07-31T10:39:58;2.53;;;1.90;;
52542;SDS011;38449;52.696;6.186;2023-07-31T10:42:49;2.65;;;1.90;;
52542;SDS011;38449;52.696;6.186;2023-07-31T10:47:58;2.63;;;2.10;;
52542;SDS011;38449;52.696;6.186;2023-07-31T10:50:38;2.22;;;1.83;;
52542;SDS011;38449;52.696;6.186;2023-07-31T10:53:31;1.65;;;1.25;;
52542;SDS011;38449;52.696;6.186;2023-07-31T10:56:06;1.58;;;1.20;;
52542;SDS011;38449;52.696;6.186;2023-07-31T10:58:41;2.20;;;1.60;;
52542;SDS011;38449;52.696;6.186;2023-07-31T11:01:11;2.15;;;1.45;;
52542;SDS011;38449;52.696;6.186;2023-07-31T11:06:12;2.30;;;1.50;;
52542;SDS011;38449;52.696;6.186;2023-07-31T11:08:43;2.42;;;1.45;;
52542;SDS011;38449;52.696;6.186;2023-07-31T11:11:14;2.10;;;1.50;;
52542;SDS011;38449;52.696;6.186;2023-07-31T11:13:46;1.85;;;1.33;;
52542;SDS011;38449;52.696;6.186;2023-07-31T11:16:20;1.75;;;1.20;;
52542;SDS011;38449;52.696;6.186;2023-07-31T11:18:49;2.88;;;1.58;;
52542;SDS011;38449;52.696;6.186;2023-07-31T11:21:17;2.45;;;1.35;;
52542;SDS011;38449;52.696;6.186;2023-07-31T11:23:45;2.10;;;1.30;;
52542;SDS011;38449;52.696;6.186;2023-07-31T11:26:17;1.80;;;1.20;;
52542;SDS011;38449;52.696;6.186;2023-07-31T11:28:46;2.35;;;1.20;;
52542;SDS011;38449;52.696;6.186;2023-07-31T11:31:13;2.22;;;1.25;;
52542;SDS011;38449;52.696;6.186;2023-07-31T11:33:39;3.90;;;1.55;;
52542;SDS011;38449;52.696;6.186;2023-07-31T11:36:15;5.47;;;2.22;;
52542;SDS011;38449;52.696;6.186;2023-07-31T11:38:42;6.70;;;2.50;;
52542;SDS011;38449;52.696;6.186;2023-07-31T11:41:13;6.03;;;2.33;;
52542;SDS011;38449;52.696;6.186;2023-07-31T11:43:42;3.70;;;2.08;;
52542;SDS011;38449;52.696;6.186;2023-07-31T11:46:09;5.13;;;1.90;;
52542;SDS011;38449;52.696;6.186;2023-07-31T11:48:36;4.25;;;2.03;;
52542;SDS011;38449;52.696;6.186;2023-07-31T11:51:08;5.53;;;2.13;;
52542;SDS011;38449;52.696;6.186;2023-07-31T11:59:17;5.65;;;2.05;;
52542;SDS011;38449;52.696;6.186;2023-07-31T12:01:43;5.85;;;2.42;;
52542;SDS011;38449;52.696;6.186;2023-07-31T12:04:10;4.93;;;2.00;;
52542;SDS011;38449;52.696;6.186;2023-07-31T12:06:37;6.95;;;2.70;;
52542;SDS011;38449;52.696;6.186;2023-07-31T12:09:05;6.82;;;2.75;;
52542;SDS011;38449;52.696;6.186;2023-07-31T12:11:41;5.00;;;2.83;;
52542;SDS011;38449;52.696;6.186;2023-07-31T12:14:24;5.68;;;2.55;;
52542;SDS011;38449;52.696;6.186;2023-07-31T12:16:59;5.25;;;2.75;;
52542;SDS011;38449;52.696;6.186;2023-07-31T12:19:26;7.05;;;2.65;;
52542;SDS011;38449;52.696;6.186;2023-07-31T12:21:56;7.00;;;2.83;;
52542;SDS011;38449;52.696;6.186;2023-07-31T12:24:24;5.05;;;3.05;;
52542;SDS011;38449;52.696;6.186;2023-07-31T12:26:52;7.00;;;2.60;;
52542;SDS011;38449;52.696;6.186;2023-07-31T12:29:18;5.75;;;2.63;;
52542;SDS011;38449;52.696;6.186;2023-07-31T12:31:44;7.10;;;2.40;;
52542;SDS011;38449;52.696;6.186;2023-07-31T12:34:17;7.68;;;2.85;;
52542;SDS011;38449;52.696;6.186;2023-07-31T12:36:46;6.22;;;2.70;;
52542;SDS011;38449;52.696;6.186;2023-07-31T12:39:14;4.68;;;2.30;;
52542;SDS011;38449;52.696;6.186;2023-07-31T12:41:41;6.90;;;2.67;;
52542;SDS011;38449;52.696;6.186;2023-07-31T12:44:07;6.32;;;2.38;;
52542;SDS011;38449;52.696;6.186;2023-07-31T12:46:33;5.63;;;2.58;;
52542;SDS011;38449;52.696;6.186;2023-07-31T12:49:00;7.97;;;2.75;;
52542;SDS011;38449;52.696;6.186;2023-07-31T12:51:27;5.18;;;2.60;;
52542;SDS011;38449;52.696;6.186;2023-07-31T12:53:53;5.43;;;2.25;;
52542;SDS011;38449;52.696;6.186;2023-07-31T12:59:19;5.07;;;2.65;;
52542;SDS011;38449;52.696;6.186;2023-07-31T13:01:46;6.90;;;2.50;;
52542;SDS011;38449;52.696;6.186;2023-07-31T13:04:12;6.80;;;2.28;;
52542;SDS011;38449;52.696;6.186;2023-07-31T13:06:38;6.53;;;2.47;;
52542;SDS011;38449;52.696;6.186;2023-07-31T13:09:04;4.32;;;2.10;;
52542;SDS011;38449;52.696;6.186;2023-07-31T13:11:31;4.32;;;2.10;;
52542;SDS011;38449;52.696;6.186;2023-07-31T13:13:57;5.20;;;2.88;;
52542;SDS011;38449;52.696;6.186;2023-07-31T13:16:23;7.43;;;2.45;;
52542;SDS011;38449;52.696;6.186;2023-07-31T13:18:51;5.43;;;2.70;;
52542;SDS011;38449;52.696;6.186;2023-07-31T13:21:19;6.55;;;2.40;;
52542;SDS011;38449;52.696;6.186;2023-07-31T13:23:48;5.10;;;2.65;;
52542;SDS011;38449;52.696;6.186;2023-07-31T13:26:14;7.13;;;3.03;;
52542;SDS011;38449;52.696;6.186;2023-07-31T13:28:41;6.47;;;2.58;;
52542;SDS011;38449;52.696;6.186;2023-07-31T13:31:07;6.63;;;2.97;;
52542;SDS011;38449;52.696;6.186;2023-07-31T13:33:33;6.93;;;3.15;;
52542;SDS011;38449;52.696;6.186;2023-07-31T13:36:00;6.47;;;3.03;;
52542;SDS011;38449;52.696;6.186;2023-07-31T13:38:27;5.53;;;2.80;;
52542;SDS011;38449;52.696;6.186;2023-07-31T13:40:53;5.65;;;3.05;;
52542;SDS011;38449;52.696;6.186;2023-07-31T13:43:21;8.88;;;3.47;;
52542;SDS011;38449;52.696;6.186;2023-07-31T13:45:47;6.45;;;3.17;;
52542;SDS011;38449;52.696;6.186;2023-07-31T13:48:13;7.63;;;3.28;;
52542;SDS011;38449;52.696;6.186;2023-07-31T13:50:39;6.78;;;2.90;;
52542;SDS011;38449;52.696;6.186;2023-07-31T13:53:06;6.75;;;3.00;;
52542;SDS011;38449;52.696;6.186;2023-07-31T13:55:32;6.53;;;2.67;;
52542;SDS011;38449;52.696;6.186;2023-07-31T13:57:58;6.13;;;2.67;;
52542;SDS011;38449;52.696;6.186;2023-07-31T14:00:25;8.93;;;3.00;;
52542;SDS011;38449;52.696;6.186;2023-07-31T14:02:51;6.00;;;2.90;;
52542;SDS011;38449;52.696;6.186;2023-07-31T14:05:17;5.28;;;2.60;;
52542;SDS011;38449;52.696;6.186;2023-07-31T14:07:43;7.05;;;2.80;;
52542;SDS011;38449;52.696;6.186;2023-07-31T14:10:10;5.80;;;3.00;;
52542;SDS011;38449;52.696;6.186;2023-07-31T14:12:37;6.00;;;3.00;;
52542;SDS011;38449;52.696;6.186;2023-07-31T14:15:04;8.00;;;2.90;;
52542;SDS011;38449;52.696;6.186;2023-07-31T14:17:32;6.25;;;2.83;;
52542;SDS011;38449;52.696;6.186;2023-07-31T14:19:58;6.03;;;2.78;;
52542;SDS011;38449;52.696;6.186;2023-07-31T14:22:30;7.28;;;2.97;;
52542;SDS011;38449;52.696;6.186;2023-07-31T14:24:59;5.13;;;2.42;;
52542;SDS011;38449;52.696;6.186;2023-07-31T14:27:26;6.03;;;2.50;;
52542;SDS011;38449;52.696;6.186;2023-07-31T14:29:52;6.57;;;2.50;;
52542;SDS011;38449;52.696;6.186;2023-07-31T14:32:18;8.32;;;3.30;;
52542;SDS011;38449;52.696;6.186;2023-07-31T14:34:45;6.68;;;2.80;;
52542;SDS011;38449;52.696;6.186;2023-07-31T14:37:11;4.95;;;2.72;;
52542;SDS011;38449;52.696;6.186;2023-07-31T14:39:37;5.53;;;3.13;;
52542;SDS011;38449;52.696;6.186;2023-07-31T14:42:04;6.10;;;2.70;;
52542;SDS011;38449;52.696;6.186;2023-07-31T14:44:30;4.82;;;2.90;;
52542;SDS011;38449;52.696;6.186;2023-07-31T14:46:56;6.32;;;3.15;;
52542;SDS011;38449;52.696;6.186;2023-07-31T14:52:21;6.43;;;3.03;;
52542;SDS011;38449;52.696;6.186;2023-07-31T14:54:47;4.88;;;2.67;;
52542;SDS011;38449;52.696;6.186;2023-07-31T14:57:14;6.15;;;3.08;;
52542;SDS011;38449;52.696;6.186;2023-07-31T14:59:40;5.88;;;2.97;;
52542;SDS011;38449;52.696;6.186;2023-07-31T15:02:07;5.97;;;3.28;;
52542;SDS011;38449;52.696;6.186;2023-07-31T15:04:35;6.45;;;3.05;;
52542;SDS011;38449;52.696;6.186;2023-07-31T15:07:01;6.50;;;3.30;;
52542;SDS011;38449;52.696;6.186;2023-07-31T15:09:28;4.55;;;3.22;;
52542;SDS011;38449;52.696;6.186;2023-07-31T15:11:55;6.20;;;3.95;;
52542;SDS011;38449;52.696;6.186;2023-07-31T15:14:23;6.15;;;4.10;;
52542;SDS011;38449;52.696;6.186;2023-07-31T15:16:50;5.82;;;3.70;;
52542;SDS011;38449;52.696;6.186;2023-07-31T15:19:16;6.63;;;3.80;;